Latest Weather Observations for Gelantipy

IDV60801

Issued at 3:32 pm EST Thursday 1 October 2020 (issued every 10 minutes, with the page automatically refreshed every 10 minutes)

About weather observations | Map of weather stations | Latest weather observations for VIC | Other Formats
Station Details ID: 084142 Name: GELANTIPY Lat: -37.22 Lon: 148.26 Height: 755.0 m
Data from the previous 72 hours. | See also: Recent months at Gelantipy
Date/Time
EST
Temp
°C
App
Temp
°C
Dew
Point
°C
Rel
Hum
%
Delta-T
°C
Wind Press
QNH
hPa
Press
MSL
hPa
Rain since
9am
mm
Dir  Spd
km/h
Gust
km/h
Spd
kts
Gust
kts
01/03:30pm 13.1 8.8 1.1 44 5.3 S 13 19 7 10 1014.8 1014.0 0.0
01/03:00pm 13.6 9.3 0.9 42 5.6 S 13 20 7 11 1014.6 1013.8 0.0
01/02:30pm 13.6 8.8 0.3 40 5.8 S 15 26 8 14 1014.2 1013.3 0.0
01/02:00pm 14.1 9.8 3.0 47 5.2 SSW 15 28 8 15 1014.0 1013.2 0.0
01/01:30pm 13.2 8.8 0.6 42 5.5 SSW 13 24 7 13 1014.0 1013.2 0.0
01/01:00pm 13.5 9.7 1.5 44 5.4 SSW 11 26 6 14 1014.0 1013.2 0.0
01/12:30pm 12.1 7.6 -0.1 43 5.2 SSW 13 26 7 14 1014.2 1013.3 0.0
01/12:00pm 12.4 8.6 4.1 57 3.9 WSW 13 22 7 12 1014.3 1013.4 0.0
01/11:30am 11.2 7.3 3.5 59 3.5 SSW 13 19 7 10 1014.3 1013.4 0.0
01/11:00am 10.8 6.8 2.6 57 3.7 SSW 13 19 7 10 1014.4 1013.6 0.0
01/10:30am 10.0 5.5 2.4 59 3.4 SW 15 22 8 12 1014.6 1013.8 0.0
01/10:00am 9.5 5.5 2.6 62 3.1 SSW 13 22 7 12 1014.5 1013.7 0.0
01/09:30am 9.3 5.7 5.1 75 2.0 SW 13 19 7 10 1014.5 1014.4 0.0
01/09:00am 8.8 4.5 5.2 78 1.7 SW 17 28 9 15 1014.3 1014.2 2.0
01/08:30am 8.0 4.1 5.3 83 1.3 SW 15 28 8 15 1014.0 1014.0 2.0
01/08:00am 7.2 4.1 5.5 89 0.8 SSW 11 22 6 12 1013.7 1013.6 2.0
01/07:30am 6.2 3.4 5.3 94 0.4 S 9 13 5 7 1013.2 1013.1 2.0
01/07:00am 6.0 3.6 5.3 95 0.3 S 7 13 4 7 1012.8 1012.7 2.0
01/06:30am 5.6 2.8 5.2 97 0.2 SSE 9 11 5 6 1012.2 1012.1 2.0
01/06:00am 5.6 3.2 5.2 97 0.2 SSE 7 9 4 5 1011.6 1011.5 2.0
01/05:30am 5.6 2.4 5.3 98 0.1 S 11 15 6 8 1011.0 1010.9 2.0
01/05:00am 5.7 2.6 5.6 99 0.0 S 11 17 6 9 1010.6 1010.5 2.0
01/04:30am 6.5 4.0 6.4 99 0.0 S 9 15 5 8 1010.1 1009.9 2.0
01/04:00am 7.3 4.9 7.0 98 0.1 SSW 9 15 5 8 1009.8 1009.7 2.0
01/03:30am 8.2 5.2 6.0 86 1.0 WSW 11 24 6 13 1009.5 1009.4 1.8
01/03:00am 8.9 6.1 5.3 78 1.7 W 9 13 5 7 1009.3 1009.2 1.8
01/02:30am 8.6 5.9 5.4 80 1.5 WSW 9 13 5 7 1009.2 1009.0 1.8
01/02:00am 9.2 4.9 5.4 77 1.8 WSW 17 26 9 14 1009.3 1009.2 1.8
01/01:30am 9.2 4.1 5.8 79 1.6 W 22 41 12 22 1009.3 1009.2 1.6
01/01:00am 9.4 4.1 6.7 83 1.3 WSW 24 41 13 22 1009.2 1009.0 1.4
01/12:30am 10.0 4.5 7.6 85 1.2 W 26 43 14 23 1009.2 1009.0 1.4
01/12:29am 10.2 5.0 7.4 83 1.4 W 24 43 13 23 1009.2 1009.0 1.4
01/12:00am 11.0 7.7 7.9 81 1.6 WSW 15 20 8 11 1008.5 1008.3 0.2
 
Date/Time
EST
Temp
°C
App
Temp
°C
Dew
Point
°C
Rel
Hum
%
Delta-T
°C
Wind Press
QNH
hPa
Press
MSL
hPa
Rain since
9am
mm
Dir  Spd
km/h
Gust
km/h
Spd
kts
Gust
kts
30/11:30pm 10.6 8.9 8.2 85 1.2 WNW 7 13 4 7 1008.3 1008.2 0.2
30/11:00pm 10.7 9.2 8.3 85 1.2 WSW 6 13 3 7 1008.2 1008.1 0.2
30/10:30pm 10.6 9.0 7.8 83 1.4 N 6 9 3 5 1008.2 1008.1 0.0
30/10:00pm 10.6 7.2 7.8 83 1.4 NNE 15 20 8 11 1008.6 1008.4 0.0
30/09:30pm 10.6 7.2 7.7 82 1.5 NNE 15 19 8 10 1008.8 1008.6 0.0
30/09:00pm 10.6 7.2 7.7 82 1.5 NNE 15 17 8 9 1008.7 1008.5 0.0
30/08:30pm 10.5 6.7 7.7 83 1.4 NNE 17 20 9 11 1008.8 1008.6 0.0
30/08:00pm 10.7 7.4 7.9 83 1.4 NNE 15 20 8 11 1008.8 1008.6 0.0
30/07:30pm 10.6 6.5 7.8 83 1.4 NNE 19 24 10 13 1008.8 1008.6 0.0
30/07:00pm 10.9 7.4 7.2 78 1.9 NE 15 20 8 11 1008.9 1008.7 0.0
30/06:30pm 10.8 7.3 7.1 78 1.8 NNE 15 20 8 11 1009.0 1008.8 0.0
30/06:00pm 11.2 7.3 7.3 77 2.0 NNE 17 20 9 11 1009.1 1008.9 0.0
30/05:30pm 11.3 7.0 7.2 76 2.1 NNE 19 28 10 15 1009.1 1008.9 0.0
30/05:00pm 11.7 6.8 7.0 73 2.4 NNE 22 32 12 17 1009.4 1009.3 0.0
30/04:30pm 12.7 7.9 7.2 69 2.8 N 22 32 12 17 1009.3 1009.2 0.0
30/04:00pm 12.8 7.5 7.0 68 2.9 N 24 32 13 17 1009.3 1009.2 0.0
30/03:30pm 12.7 7.5 7.4 70 2.7 N 24 35 13 19 1009.7 1009.6 0.0
30/03:00pm 12.8 5.9 6.4 65 3.2 N 32 43 17 23 1009.8 1009.7 0.0
30/02:39pm 13.0 6.8 6.1 63 3.4 N 28 46 15 25 1009.7 1009.6 0.0
30/02:30pm 13.2 6.3 6.3 63 3.4 NNE 32 44 17 24 1009.8 1009.7 0.0
30/02:00pm 12.8 5.7 6.6 66 3.1 NNE 33 44 18 24 1010.1 1009.9 0.0
30/01:30pm 12.5 6.2 5.9 64 3.2 NNE 28 39 15 21 1010.7 1010.6 0.0
30/01:00pm 12.5 7.3 5.7 63 3.3 N 22 35 12 19 1011.4 1011.2 0.0
30/12:30pm 13.0 8.0 4.7 57 4.0 NE 20 32 11 17 1011.8 1011.7 0.0
30/12:00pm 12.3 7.9 4.8 60 3.6 NE 17 24 9 13 1012.1 1012.0 0.0
30/11:30am 12.9 8.1 4.6 57 4.0 NNE 19 26 10 14 1012.6 1012.5 0.0
30/11:00am 13.1 8.7 5.0 58 3.9 NNE 17 24 9 13 1013.4 1013.3 0.0
30/10:30am 12.4 8.7 4.4 58 3.8 NE 13 19 7 10 1013.8 1013.8 0.0
30/10:00am 11.8 8.4 3.8 58 3.7 NE 11 15 6 8 1014.5 1014.4 0.0
30/09:30am 11.5 8.4 3.5 58 3.7 NE 9 13 5 7 1014.7 1014.6 0.0
30/09:00am 10.9 7.9 3.9 62 3.2 NE 9 13 5 7 1014.9 1014.8 0.0
30/08:30am 9.6 4.7 4.0 68 2.6 N 19 24 10 13 1015.2 1015.2 0.0
30/08:00am 10.3 5.3 3.6 63 3.1 NNE 19 24 10 13 1015.0 1015.0 0.0
30/07:30am 9.8 4.6 3.3 64 2.9 NNE 20 24 11 13 1015.1 1015.1 0.0
30/07:00am 9.0 4.8 3.6 69 2.4 NNE 15 17 8 9 1014.8 1014.7 0.0
30/06:30am 9.3 4.5 2.4 62 3.1 NNE 17 20 9 11 1015.0 1015.0 0.0
30/06:00am 9.0 3.6 2.6 64 2.8 NNE 20 22 11 12 1014.8 1014.7 0.0
30/05:30am 8.2 3.5 2.9 69 2.3 NNE 17 20 9 11 1014.6 1014.5 0.0
30/05:00am 8.8 4.4 2.8 66 2.7 NNE 15 17 8 9 1014.7 1014.6 0.0
30/04:30am 8.8 5.1 2.6 65 2.7 NNE 11 15 6 8 1014.8 1014.7 0.0
30/04:00am 9.0 4.1 2.3 63 2.9 NNE 17 22 9 12 1015.1 1015.1 0.0
30/03:30am 9.2 3.8 2.3 62 3.0 NNE 20 22 11 12 1015.2 1015.2 0.0
30/03:00am 8.2 3.4 2.7 68 2.4 NNE 17 20 9 11 1015.4 1015.4 0.0
30/02:30am 8.6 3.8 2.6 66 2.6 NNE 17 20 9 11 1015.8 1015.7 0.0
30/02:00am 8.2 3.4 2.7 68 2.4 N 17 19 9 10 1016.1 1016.0 0.0
30/01:30am 8.4 3.2 2.6 67 2.6 N 19 22 10 12 1016.5 1016.5 0.0
30/01:00am 8.3 3.1 2.5 67 2.5 N 19 20 10 11 1016.8 1016.8 0.0
30/12:30am 7.9 3.8 2.4 68 2.4 NNE 13 13 7 7 1017.4 1017.4 0.0
30/12:00am 8.9 5.2 2.5 64 2.8 NE 11 17 6 9 1017.6 1017.6 0.0
 
Date/Time
EST
Temp
°C
App
Temp
°C
Dew
Point
°C
Rel
Hum
%
Delta-T
°C
Wind Press
QNH
hPa
Press
MSL
hPa
Rain since
9am
mm
Dir  Spd
km/h
Gust
km/h
Spd
kts
Gust
kts
29/11:30pm 8.3 4.2 2.1 65 2.7 NNE 13 17 7 9 1017.8 1017.8 0.0
29/11:00pm 9.5 4.7 2.4 61 3.1 N 17 24 9 13 1018.2 1018.2 0.0
29/10:30pm 9.5 5.3 1.9 59 3.3 N 13 17 7 9 1018.7 1018.7 0.0
29/10:00pm 9.9 5.1 0.5 52 4.0 N 15 17 8 9 1018.9 1018.9 0.0
29/09:30pm 11.6 6.9 1.0 48 4.6 N 15 19 8 10 1019.1 1019.1 0.0
29/09:00pm 10.9 6.2 1.2 51 4.2 NNW 15 19 8 10 1019.4 1019.4 0.0
29/08:30pm 10.1 8.4 5.9 75 2.0 N 4 7 2 4 1019.3 1019.3 0.0
29/08:00pm 10.4 8.1 5.6 72 2.3 NNE 7 9 4 5 1019.3 1019.3 0.0
29/07:30pm 10.9 9.8 5.2 68 2.7 CALM 0 0 0 0 1019.2 1019.2 0.0
29/07:00pm 11.4 10.3 5.3 66 2.9 CALM 0 0 0 0 1019.2 1019.2 0.0
29/06:30pm 12.7 10.4 4.9 59 3.8 SSE 6 9 3 5 1019.1 1019.1 0.0
29/06:00pm 12.8 10.1 5.5 61 3.6 WSW 9 9 5 5 1019.3 1019.3 0.0
29/05:30pm 14.0 11.3 5.6 57 4.1 SE 9 15 5 8 1019.1 1019.1 0.0
29/05:00pm 14.6 11.7 4.6 51 4.8 ESE 9 15 5 8 1019.3 1019.3 0.0
29/04:30pm 15.5 12.6 4.8 49 5.2 S 9 15 5 8 1019.4 1019.4 0.0
29/04:00pm 15.9 12.8 3.7 44 5.8 S 9 11 5 6 1019.3 1019.3 0.0
29/03:30pm 16.4 12.6 4.1 44 6.0 S 13 19 7 10 1019.5 1019.6 0.0
29/03:00pm 16.9 13.5 2.1 37 6.9 SSE 9 17 5 9 1019.6 1019.7 0.0
29/02:30pm 16.9 13.3 2.9 39 6.7 ESE 11 17 6 9 1020.1 1020.1 0.0
29/02:00pm 16.7 14.2 3.7 42 6.3 W 6 9 3 5 1020.2 1020.2 0.0
29/01:30pm 16.9 14.6 2.5 38 6.8 NE 4 9 2 5 1020.7 1020.8 0.0
29/01:00pm 15.9 12.5 2.0 39 6.4 ENE 9 13 5 7 1021.4 1021.4 0.0
29/12:30pm 15.8 11.9 3.3 43 6.0 NNE 13 19 7 10 1021.8 1021.9 0.0
29/12:00pm 15.7 11.6 2.5 41 6.2 NE 13 17 7 9 1022.2 1022.3 0.0
29/11:30am 14.5 9.9 3.9 49 5.1 NNE 17 20 9 11 1022.3 1022.4 0.0
29/11:00am 13.8 9.5 3.3 49 4.9 NE 15 20 8 11 1022.8 1022.8 0.0
29/10:30am 12.2 8.4 3.7 56 4.0 NE 13 19 7 10 1023.7 1023.8 0.0
29/10:00am 11.5 7.5 4.7 63 3.2 NE 15 20 8 11 1024.3 1024.4 0.0
29/09:30am 10.5 6.3 5.5 71 2.4 NNE 17 20 9 11 1024.6 1024.7 0.0
29/09:00am 10.4 6.9 5.4 71 2.4 NE 13 19 7 10 1024.7 1024.8 0.0
29/08:30am 8.5 3.2 5.1 79 1.6 NNE 22 28 12 15 1024.9 1025.0 0.0
29/08:00am 7.8 2.6 5.4 85 1.1 NNE 22 28 12 15 1024.7 1024.8 0.0
29/07:30am 6.0 0.2 4.3 89 0.8 NNE 24 30 13 16 1024.3 1024.4 0.0
29/07:00am 5.4 -0.5 3.9 90 0.7 NNE 24 30 13 16 1024.1 1024.1 0.0
29/06:30am 4.2 -0.9 3.3 94 0.4 NNE 19 22 10 12 1023.8 1023.9 0.0
29/06:00am 3.3 -1.5 2.7 96 0.3 NNE 17 20 9 11 1023.7 1023.8 0.0
29/05:30am 3.3 -2.1 2.7 96 0.3 NNE 20 22 11 12 1023.3 1023.4 0.0
29/05:00am 2.6 -1.9 2.3 98 0.1 NNE 15 19 8 10 1023.1 1023.2 0.0
29/04:30am 2.5 -0.9 2.1 97 0.2 NNE 9 15 5 8 1023.1 1023.2 0.0
29/04:00am 2.5 -1.2 2.2 98 0.1 NNE 11 17 6 9 1023.1 1023.2 0.0
29/03:30am 2.5 -2.4 2.2 98 0.1 NNE 17 19 9 10 1023.4 1023.5 0.0
29/03:00am 3.0 -1.0 2.9 99 0.0 NNE 13 17 7 9 1023.6 1023.7 0.0
29/02:30am 2.3 -2.2 2.3 100 0.0 NNE 15 17 8 9 1023.8 1023.9 0.0
29/02:00am 2.2 -2.3 2.2 100 0.0 NNE 15 17 8 9 1024.2 1024.3 0.0
29/01:30am 1.8 -2.4 1.8 100 0.0 NNE 13 15 7 8 1024.6 1024.7 0.0
29/01:00am 1.8 -1.6 1.7 99 0.0 NNE 9 11 5 6 1025.1 1025.2 0.0
29/12:30am 2.5 -0.4 2.5 100 0.0 N 7 9 4 5 1025.2 1025.4 0.0
29/12:00am 2.7 0.0 2.7 100 0.0 N 6 9 3 5 1025.6 1025.7 0.0
 
Date/Time
EST
Temp
°C
App
Temp
°C
Dew
Point
°C
Rel
Hum
%
Delta-T
°C
Wind Press
QNH
hPa
Press
MSL
hPa
Rain since
9am
mm
Dir  Spd
km/h
Gust
km/h
Spd
kts
Gust
kts
28/11:30pm 2.2 -0.8 2.2 100 0.0 N 7 11 4 6 1025.6 1025.7 0.0
28/11:00pm 2.2 -0.2 2.1 99 0.0 N 4 9 2 5 1025.7 1025.8 0.0
28/10:30pm 3.5 1.7 3.5 100 0.0 NNE 2 7 1 4 1025.9 1026.0 0.0
28/10:00pm 4.0 1.9 4.0 100 0.0 N 4 7 2 4 1025.9 1026.0 0.0
28/09:30pm 3.5 2.0 3.2 98 0.1 CALM 0 0 0 0 1026.1 1026.2 0.0
28/09:00pm 4.1 2.7 3.7 97 0.2 CALM 0 0 0 0 1026.3 1026.4 0.0
28/08:30pm 4.2 1.5 3.5 95 0.3 SW 7 9 4 5 1026.3 1026.4 0.0
28/08:00pm 5.2 2.2 4.2 93 0.4 SW 9 11 5 6 1026.2 1026.3 0.0
28/07:30pm 5.5 3.0 4.0 90 0.7 SW 6 9 3 5 1026.0 1026.1 0.0
28/07:00pm 6.3 3.9 4.1 86 1.0 S 6 7 3 4 1025.6 1025.7 0.0
28/06:30pm 7.1 4.1 4.1 81 1.4 SSW 9 13 5 7 1025.1 1025.2 0.0
28/06:00pm 8.3 5.2 3.8 73 2.0 SSW 9 15 5 8 1025.0 1025.1 0.0
28/05:30pm 9.4 6.2 3.2 65 2.8 S 9 13 5 7 1024.8 1024.9 0.0
28/05:00pm 10.3 6.3 2.9 60 3.3 SW 13 20 7 11 1024.6 1024.7 0.0
28/04:30pm 10.7 6.7 3.0 59 3.5 SSW 13 19 7 10 1024.3 1024.4 0.0
28/04:00pm 10.8 6.8 2.9 58 3.6 SSW 13 24 7 13 1024.3 1024.4 0.0

Other formats

Comma delimited format used in spreadsheet applications
http://www.bom.gov.au/fwo/IDV60801/IDV60801.94913.axf

JavaScript Object Notation format (JSON) in row-major order
http://www.bom.gov.au/fwo/IDV60801/IDV60801.94913.json

Data quality

Most of these data are generated automatically and are frequently updated. Quality checks on data are not normally performed. It is possible for incorrect values to appear. Refer to information at About Latest Weather Observations and please check the disclaimer before using these data.